Time;durP1;ratioP1;P1;durP2;ratioP2;P2;SDS_P1;SDS_P2;PMS_P1;PMS_P2;Temp;Humidity;BMP_temperature;BMP_pressure;BME280_temperature;BME280_humidity;BME280_pressure;Samples;Min_cycle;Max_cycle;Signal;HPM_P1;HPM_P2
2022/09/16 00:01:25;;;;;;;2.53;1.20;;;12.80;99.90;;;;;;5092765;28;20290;-68
2022/09/16 00:03:55;;;;;;;5.45;1.33;;;12.90;99.90;;;;;;5091911;28;20044;-67
2022/09/16 00:06:23;;;;;;;5.82;1.20;;;12.80;99.90;;;;;;5092415;28;20127;-67
2022/09/16 00:08:50;;;;;;;4.38;1.20;;;12.90;99.90;;;;;;5092196;28;20504;-67
2022/09/16 00:11:16;;;;;;;6.07;1.75;;;12.80;99.90;;;;;;5092299;28;20044;-67
2022/09/16 00:13:42;;;;;;;12.88;1.90;;;12.80;99.90;;;;;;5091664;28;20496;-68
2022/09/16 00:16:10;;;;;;;4.13;1.38;;;12.80;99.90;;;;;;5092148;28;20086;-67
2022/09/16 00:18:36;;;;;;;5.25;1.38;;;12.80;99.90;;;;;;5092312;28;20114;-67
2022/09/16 00:21:05;;;;;;;2.97;1.30;;;12.80;99.90;;;;;;5092163;28;20070;-67
2022/09/16 00:23:31;;;;;;;7.32;1.38;;;12.80;99.90;;;;;;5090927;28;20085;-67
2022/09/16 00:25:56;;;;;;;4.90;1.50;;;12.80;99.90;;;;;;5090522;28;20040;-67
2022/09/16 00:28:23;;;;;;;5.90;2.03;;;12.90;99.90;;;;;;5090738;28;20089;-67
2022/09/16 00:30:48;;;;;;;3.33;0.80;;;12.80;99.90;;;;;;5091630;28;20096;-67
2022/09/16 00:33:14;;;;;;;4.75;1.23;;;12.90;99.90;;;;;;5092000;28;20499;-67
2022/09/16 00:35:40;;;;;;;2.70;1.40;;;12.80;99.90;;;;;;5091605;28;20488;-67
2022/09/16 00:38:06;;;;;;;3.28;1.23;;;12.80;99.90;;;;;;5091958;28;20043;-67
2022/09/16 00:40:32;;;;;;;4.72;1.05;;;12.80;99.90;;;;;;5089951;28;20131;-67
2022/09/16 00:42:59;;;;;;;7.28;1.50;;;12.80;99.90;;;;;;5092051;28;20047;-67
2022/09/16 00:45:30;;;;;;;1.88;1.25;;;12.80;99.90;;;;;;5091742;28;20040;-67
2022/09/16 00:48:00;;;;;;;4.63;1.23;;;12.90;99.90;;;;;;5092007;28;20040;-67
2022/09/16 00:50:42;;;;;;;4.53;1.30;;;12.80;99.90;;;;;;5091935;28;20404;-67
2022/09/16 00:53:14;;;;;;;3.92;1.25;;;12.80;99.90;;;;;;5091600;28;20504;-67
2022/09/16 00:55:41;;;;;;;5.45;1.60;;;12.80;99.90;;;;;;5090447;28;20040;-67
2022/09/16 00:58:38;;;;;;;5.80;1.20;;;12.80;99.90;;;;;;5091989;28;20059;-68
2022/09/16 01:01:04;;;;;;;3.92;1.30;;;12.80;99.90;;;;;;5085826;28;20049;-67
2022/09/16 01:03:34;;;;;;;3.78;1.23;;;12.90;99.90;;;;;;5091520;28;20040;-67
2022/09/16 01:05:59;;;;;;;4.22;1.42;;;12.90;99.90;;;;;;5091559;28;20119;-67
2022/09/16 01:08:25;;;;;;;5.35;1.60;;;12.80;99.90;;;;;;5091724;28;20464;-67
2022/09/16 01:10:51;;;;;;;6.55;1.60;;;12.90;99.90;;;;;;5090297;28;20443;-67
2022/09/16 01:13:16;;;;;;;2.70;1.15;;;12.90;99.90;;;;;;5091458;28;20074;-67
2022/09/16 01:16:01;;;;;;;3.92;1.35;;;12.90;99.90;;;;;;5091113;28;20059;-67
2022/09/16 01:18:54;;;;;;;1.70;1.15;;;12.90;99.90;;;;;;5091706;28;20032;-67
2022/09/16 01:21:44;;;;;;;4.78;1.10;;;13.00;99.90;;;;;;5090477;28;20485;-67
2022/09/16 01:24:34;;;;;;;2.38;1.05;;;12.90;99.90;;;;;;5091176;28;20408;-67
2022/09/16 01:27:20;;;;;;;6.32;1.27;;;12.90;99.90;;;;;;5073362;28;20587;-67
2022/09/16 01:30:17;;;;;;;6.15;1.35;;;13.00;99.90;;;;;;5091560;28;20036;-67
2022/09/16 01:33:00;;;;;;;3.08;1.00;;;12.90;99.90;;;;;;5091261;28;20547;-67
2022/09/16 01:35:37;;;;;;;6.03;1.23;;;12.90;99.90;;;;;;5091115;28;20113;-67
2022/09/16 01:38:38;;;;;;;3.60;0.98;;;12.90;99.90;;;;;;5091384;28;20043;-67
2022/09/16 01:41:31;;;;;;;3.53;1.20;;;12.90;99.90;;;;;;5090379;28;20080;-67
2022/09/16 01:44:20;;;;;;;4.00;1.00;;;12.90;99.90;;;;;;5091021;28;20040;-67
2022/09/16 01:46:55;;;;;;;5.40;1.10;;;12.90;99.90;;;;;;5091256;28;20040;-67
2022/09/16 01:49:55;;;;;;;6.50;1.20;;;12.80;99.90;;;;;;5091385;28;20446;-67
2022/09/16 01:52:59;;;;;;;5.00;1.05;;;12.80;99.90;;;;;;5066979;28;20336;-67
2022/09/16 01:55:47;;;;;;;7.07;1.10;;;12.80;99.90;;;;;;5082155;28;20533;-67
2022/09/16 01:58:48;;;;;;;6.90;1.00;;;12.80;99.90;;;;;;5094951;28;20431;-67
2022/09/16 02:01:53;;;;;;;4.55;1.13;;;12.80;99.90;;;;;;5093386;28;20078;-67
2022/09/16 02:04:35;;;;;;;4.70;1.00;;;12.90;99.90;;;;;;5070884;28;20040;-67
2022/09/16 02:07:05;;;;;;;6.53;1.35;;;12.80;99.90;;;;;;5093563;28;20241;-67
2022/09/16 02:09:35;;;;;;;5.40;1.35;;;12.80;99.90;;;;;;5094414;28;20504;-67
2022/09/16 02:12:04;;;;;;;3.88;1.15;;;12.80;99.90;;;;;;5093524;28;20412;-67
2022/09/16 02:14:34;;;;;;;3.35;1.20;;;12.80;99.90;;;;;;5094165;28;20040;-67
2022/09/16 02:17:13;;;;;;;4.88;1.17;;;12.80;99.90;;;;;;5094515;28;20177;-67
2022/09/16 02:19:59;;;;;;;5.30;1.20;;;12.80;99.90;;;;;;5094475;28;20044;-67
2022/09/16 02:22:33;;;;;;;7.55;1.60;;;12.80;99.90;;;;;;5094487;28;20032;-67
2022/09/16 02:25:02;;;;;;;4.18;1.42;;;12.80;99.90;;;;;;5092761;28;20036;-67
2022/09/16 02:27:29;;;;;;;9.05;2.03;;;12.80;99.90;;;;;;5093165;28;20481;-67
2022/09/16 02:30:01;;;;;;;7.38;1.33;;;12.80;99.90;;;;;;5094151;28;20404;-67
2022/09/16 02:32:31;;;;;;;4.95;1.30;;;12.80;99.90;;;;;;5094000;28;20114;-67
2022/09/16 02:34:57;;;;;;;5.60;1.60;;;12.90;99.90;;;;;;5094211;28;20032;-67
2022/09/16 02:37:34;;;;;;;6.90;1.60;;;12.90;99.90;;;;;;5092696;28;20052;-68
2022/09/16 02:40:05;;;;;;;5.20;1.40;;;12.90;99.90;;;;;;5093973;28;20445;-67
2022/09/16 02:42:31;;;;;;;7.72;1.17;;;12.90;99.90;;;;;;5092587;28;20043;-67
2022/09/16 02:44:57;;;;;;;3.03;0.80;;;12.90;99.90;;;;;;5093477;28;20122;-67
2022/09/16 02:47:36;;;;;;;9.30;1.60;;;12.90;99.90;;;;;;5092720;28;20062;-67
2022/09/16 02:50:11;;;;;;;3.92;1.20;;;12.90;99.90;;;;;;5092484;28;20054;-67
2022/09/16 02:53:01;;;;;;;2.25;1.00;;;12.90;99.90;;;;;;5093806;28;20048;-67
2022/09/16 02:55:49;;;;;;;4.47;1.10;;;12.80;99.90;;;;;;5093799;28;20044;-67
2022/09/16 02:58:15;;;;;;;5.35;1.48;;;12.70;99.90;;;;;;5093813;28;20053;-67
2022/09/16 03:00:45;;;;;;;3.63;1.27;;;12.80;99.90;;;;;;5093594;28;20049;-67
2022/09/16 03:03:12;;;;;;;5.15;1.20;;;12.70;99.90;;;;;;5093012;28;20102;-67
2022/09/16 03:06:09;;;;;;;6.35;1.30;;;12.60;99.90;;;;;;5093168;28;20442;-67
2022/09/16 03:08:36;;;;;;;7.60;1.20;;;12.60;99.90;;;;;;5092017;28;20038;-67
2022/09/16 03:11:19;;;;;;;7.82;1.40;;;12.60;99.90;;;;;;5092352;28;20510;-67
2022/09/16 03:14:01;;;;;;;5.85;1.38;;;12.50;99.90;;;;;;5092834;28;20035;-67
2022/09/16 03:16:34;;;;;;;6.20;1.30;;;12.60;99.90;;;;;;5093115;28;20456;-67
2022/09/16 03:19:37;;;;;;;2.60;1.30;;;12.60;99.90;;;;;;5093432;28;20077;-67
2022/09/16 03:22:12;;;;;;;6.72;1.20;;;12.60;99.90;;;;;;5091305;28;20047;-67
2022/09/16 03:24:55;;;;;;;5.72;1.60;;;12.50;99.90;;;;;;5092779;28;20036;-67
2022/09/16 03:27:30;;;;;;;3.22;1.20;;;12.50;99.90;;;;;;5093080;28;20055;-67
2022/09/16 03:30:00;;;;;;;4.15;1.17;;;12.60;99.90;;;;;;5091934;28;20043;-67
2022/09/16 03:32:37;;;;;;;3.13;1.05;;;12.60;99.90;;;;;;5091521;28;20046;-67
2022/09/16 03:35:18;;;;;;;7.13;1.30;;;12.60;99.90;;;;;;5092504;28;20400;-67
2022/09/16 03:37:45;;;;;;;7.03;1.30;;;12.60;99.90;;;;;;5092964;28;20040;-67
2022/09/16 03:40:16;;;;;;;4.65;1.10;;;12.60;99.90;;;;;;5092926;28;20396;-67
2022/09/16 03:42:43;;;;;;;4.78;1.55;;;12.60;99.90;;;;;;5092829;28;20450;-67
2022/09/16 03:45:20;;;;;;;6.22;1.10;;;12.60;99.90;;;;;;5091135;28;20044;-67
2022/09/16 03:47:48;;;;;;;4.35;1.45;;;12.60;99.90;;;;;;5091691;28;20618;-67
2022/09/16 03:50:14;;;;;;;4.82;1.30;;;12.60;99.90;;;;;;5092972;28;20052;-67
2022/09/16 03:52:40;;;;;;;3.95;1.33;;;12.60;99.90;;;;;;5091494;28;20048;-67
2022/09/16 03:55:09;;;;;;;10.63;1.35;;;12.60;99.90;;;;;;5092213;28;20165;-67
2022/09/16 03:57:35;;;;;;;5.75;1.65;;;12.60;99.90;;;;;;5092383;28;20040;-67
2022/09/16 04:00:01;;;;;;;5.55;1.10;;;12.60;99.90;;;;;;5091019;28;20540;-67
2022/09/16 04:02:27;;;;;;;6.28;1.02;;;12.50;99.90;;;;;;5092546;28;20040;-67
2022/09/16 04:04:52;;;;;;;2.22;1.17;;;12.50;99.90;;;;;;5091027;28;20036;-67
2022/09/16 04:07:18;;;;;;;5.28;1.10;;;12.50;99.90;;;;;;5092390;28;20177;-67
2022/09/16 04:09:44;;;;;;;5.93;1.60;;;12.50;99.90;;;;;;5092268;28;20523;-67
2022/09/16 04:12:09;;;;;;;4.80;1.15;;;12.60;99.90;;;;;;5092187;28;20047;-67
2022/09/16 04:14:35;;;;;;;5.85;1.33;;;12.50;99.90;;;;;;5090866;28;20518;-67
2022/09/16 04:17:01;;;;;;;7.68;1.98;;;12.50;99.90;;;;;;5090688;28;20185;-67
2022/09/16 04:19:26;;;;;;;5.05;1.50;;;12.50;99.90;;;;;;5090880;28;20032;-67
2022/09/16 04:21:52;;;;;;;8.35;1.45;;;12.50;99.90;;;;;;5092042;28;20466;-67
2022/09/16 04:24:18;;;;;;;5.95;1.20;;;12.50;99.90;;;;;;5091694;28;20044;-67
2022/09/16 04:26:44;;;;;;;6.55;1.25;;;12.50;99.90;;;;;;5092039;28;20546;-67
2022/09/16 04:29:09;;;;;;;6.30;1.10;;;12.50;99.90;;;;;;5091851;28;20122;-67
2022/09/16 04:31:35;;;;;;;8.32;1.48;;;12.50;99.90;;;;;;5090640;28;20042;-67
2022/09/16 04:34:02;;;;;;;5.75;1.15;;;12.50;99.90;;;;;;5091688;28;20044;-67
2022/09/16 04:36:27;;;;;;;4.25;1.10;;;12.50;99.90;;;;;;5091845;28;20496;-67
2022/09/16 04:38:53;;;;;;;4.60;1.30;;;12.40;99.90;;;;;;5091844;28;20039;-67
2022/09/16 04:41:21;;;;;;;3.15;1.20;;;12.40;99.90;;;;;;5091903;28;20064;-67
2022/09/16 04:43:51;;;;;;;5.18;1.13;;;12.40;99.90;;;;;;5091387;28;20405;-67
2022/09/16 04:46:17;;;;;;;6.32;1.30;;;12.40;99.90;;;;;;5090862;28;20043;-67
2022/09/16 04:48:46;;;;;;;5.43;1.30;;;12.40;99.90;;;;;;5091988;28;20377;-67
2022/09/16 04:51:12;;;;;;;4.75;1.25;;;12.40;99.90;;;;;;5091806;28;20504;-67
2022/09/16 04:53:39;;;;;;;5.53;1.35;;;12.40;99.90;;;;;;5091831;28;20113;-67
2022/09/16 04:56:14;;;;;;;5.50;1.40;;;12.40;99.90;;;;;;5091410;28;20043;-67
2022/09/16 04:58:40;;;;;;;9.18;1.50;;;12.30;99.90;;;;;;5090789;28;20161;-67
2022/09/16 05:01:11;;;;;;;8.07;1.60;;;12.30;99.90;;;;;;5091690;28;20043;-67
2022/09/16 05:03:48;;;;;;;4.32;1.30;;;12.20;99.90;;;;;;5091442;28;20036;-67
2022/09/16 05:06:16;;;;;;;3.72;1.45;;;12.30;99.90;;;;;;5087258;28;20055;-67
2022/09/16 05:08:42;;;;;;;6.95;1.30;;;12.30;99.90;;;;;;5089133;28;20044;-67
2022/09/16 05:11:13;;;;;;;3.33;1.42;;;12.20;99.90;;;;;;5089016;28;20032;-67
2022/09/16 05:13:39;;;;;;;3.90;1.40;;;12.20;99.90;;;;;;5091553;28;20038;-67
2022/09/16 05:16:10;;;;;;;4.57;1.70;;;12.20;99.90;;;;;;5072628;28;20097;-67
2022/09/16 05:18:37;;;;;;;8.27;1.63;;;12.20;99.90;;;;;;5091115;28;20042;-67
2022/09/16 05:21:06;;;;;;;4.57;1.67;;;12.20;99.90;;;;;;5090399;28;20047;-67
2022/09/16 05:23:32;;;;;;;6.93;1.70;;;12.30;99.90;;;;;;5091368;28;20449;-67
2022/09/16 05:26:14;;;;;;;6.88;1.48;;;12.20;99.90;;;;;;5093241;28;20083;-67
2022/09/16 05:28:40;;;;;;;6.38;1.55;;;12.20;99.90;;;;;;5095484;28;20040;-67
2022/09/16 05:31:11;;;;;;;7.85;1.70;;;12.20;99.90;;;;;;5094255;28;20047;-67
2022/09/16 05:33:37;;;;;;;6.00;1.55;;;12.20;99.90;;;;;;5095207;28;20036;-67
2022/09/16 05:36:12;;;;;;;6.72;1.35;;;12.20;99.90;;;;;;5094826;28;20040;-67
2022/09/16 05:38:37;;;;;;;5.07;1.42;;;12.10;99.90;;;;;;5095276;28;20036;-68
2022/09/16 05:41:04;;;;;;;6.80;1.58;;;12.10;99.90;;;;;;5095167;28;20040;-67
2022/09/16 05:43:30;;;;;;;5.45;1.40;;;12.10;99.90;;;;;;5094951;28;20381;-67
2022/09/16 05:45:56;;;;;;;4.32;1.38;;;12.10;99.90;;;;;;5094722;28;20032;-67
2022/09/16 05:48:23;;;;;;;4.00;1.50;;;12.20;99.90;;;;;;5094831;28;20082;-67
2022/09/16 05:50:53;;;;;;;3.88;1.60;;;12.10;99.90;;;;;;5095175;28;20040;-67
2022/09/16 05:53:19;;;;;;;3.83;1.60;;;12.10;99.90;;;;;;5094869;28;20557;-67
2022/09/16 05:55:55;;;;;;;6.45;1.40;;;12.10;99.90;;;;;;5094673;28;20032;-67
2022/09/16 05:58:21;;;;;;;6.68;1.30;;;12.20;99.90;;;;;;5093500;28;20048;-68
2022/09/16 06:00:47;;;;;;;6.25;1.75;;;12.20;99.90;;;;;;5094801;28;20045;-67
2022/09/16 06:03:12;;;;;;;8.43;1.85;;;12.10;99.90;;;;;;5095104;28;20396;-67
2022/09/16 06:05:38;;;;;;;6.68;1.40;;;12.10;99.90;;;;;;5093349;28;20514;-67
2022/09/16 06:08:04;;;;;;;6.70;1.67;;;12.20;99.90;;;;;;5094695;28;20040;-67
2022/09/16 06:10:29;;;;;;;6.93;1.60;;;12.20;99.90;;;;;;5094578;28;20039;-67
2022/09/16 06:12:55;;;;;;;4.85;1.90;;;12.30;99.90;;;;;;5094473;28;20040;-67
2022/09/16 06:15:20;;;;;;;3.85;1.50;;;12.30;99.90;;;;;;5093979;28;20098;-67
2022/09/16 06:17:46;;;;;;;4.55;1.42;;;12.40;99.90;;;;;;5094535;28;20044;-67
2022/09/16 06:20:13;;;;;;;5.03;2.00;;;12.40;99.90;;;;;;5094620;28;20392;-67
2022/09/16 06:22:39;;;;;;;5.20;2.17;;;12.50;99.90;;;;;;5094283;28;20492;-67
2022/09/16 06:25:05;;;;;;;12.50;1.75;;;12.50;99.90;;;;;;5094049;28;20038;-67
2022/09/16 06:27:31;;;;;;;6.40;1.52;;;12.50;99.90;;;;;;5092915;28;20585;-67
2022/09/16 06:29:57;;;;;;;4.22;1.13;;;12.40;99.90;;;;;;5094055;28;20040;-67
2022/09/16 06:32:23;;;;;;;3.28;1.52;;;12.50;99.90;;;;;;5094284;28;20039;-67
2022/09/16 06:34:49;;;;;;;10.25;1.45;;;12.50;99.90;;;;;;5094015;28;20040;-67
2022/09/16 06:37:15;;;;;;;9.15;1.70;;;12.60;99.90;;;;;;5092072;28;20040;-67
2022/09/16 06:39:41;;;;;;;9.68;1.63;;;12.60;99.90;;;;;;5092900;28;20040;-67
2022/09/16 06:42:07;;;;;;;6.50;1.50;;;12.60;99.90;;;;;;5093939;28;20063;-67
2022/09/16 06:44:33;;;;;;;9.23;1.52;;;12.70;99.90;;;;;;5092290;28;20040;-68
2022/09/16 06:46:59;;;;;;;9.02;1.40;;;12.70;99.90;;;;;;5092635;28;20036;-67
2022/09/16 06:49:24;;;;;;;9.15;2.33;;;12.70;99.90;;;;;;5093949;28;20044;-67
2022/09/16 06:51:50;;;;;;;10.75;1.52;;;12.70;99.90;;;;;;5094014;28;20518;-67
2022/09/16 06:54:16;;;;;;;7.38;1.83;;;12.70;99.90;;;;;;5092158;28;20048;-67
2022/09/16 06:56:42;;;;;;;5.30;1.20;;;12.70;99.90;;;;;;5093616;28;20385;-67
2022/09/16 06:59:09;;;;;;;10.52;2.30;;;12.70;99.90;;;;;;5092304;28;20092;-67
2022/09/16 07:01:35;;;;;;;6.60;1.58;;;12.70;99.90;;;;;;5093842;28;20043;-67
2022/09/16 07:04:04;;;;;;;6.07;1.45;;;12.80;99.90;;;;;;5093341;28;20216;-67
2022/09/16 07:06:30;;;;;;;9.88;1.65;;;12.80;99.90;;;;;;5092435;28;20078;-67
2022/09/16 07:08:56;;;;;;;9.57;1.58;;;12.90;99.90;;;;;;5092123;28;20040;-67
2022/09/16 07:11:23;;;;;;;8.27;1.73;;;12.90;99.90;;;;;;5093316;28;20373;-67
2022/09/16 07:13:49;;;;;;;11.30;1.40;;;12.90;99.90;;;;;;5092910;28;20044;-67
2022/09/16 07:16:20;;;;;;;5.95;1.38;;;13.00;99.90;;;;;;5093528;28;20040;-67
2022/09/16 07:18:47;;;;;;;5.80;1.10;;;13.00;99.90;;;;;;5093485;28;20093;-67
2022/09/16 07:21:17;;;;;;;8.68;1.70;;;13.00;99.90;;;;;;5092027;28;20047;-67
2022/09/16 07:23:44;;;;;;;9.05;1.23;;;13.10;99.90;;;;;;5092908;28;20036;-68
2022/09/16 07:26:18;;;;;;;14.45;1.70;;;13.10;99.90;;;;;;5092973;28;20090;-67
2022/09/16 07:28:45;;;;;;;12.40;1.75;;;13.20;99.90;;;;;;5093282;28;20036;-67
2022/09/16 07:31:17;;;;;;;7.10;1.80;;;13.10;99.90;;;;;;5093119;28;20058;-67
2022/09/16 07:33:45;;;;;;;9.23;1.90;;;13.20;99.90;;;;;;5092771;28;20070;-67
2022/09/16 07:36:13;;;;;;;11.30;1.52;;;13.20;99.90;;;;;;5092885;28;20059;-67
2022/09/16 07:38:39;;;;;;;12.00;1.80;;;13.20;99.90;;;;;;5092777;28;20040;-67
2022/09/16 07:41:07;;;;;;;7.50;1.55;;;13.20;99.90;;;;;;5092729;28;20032;-67
2022/09/16 07:43:33;;;;;;;6.78;1.20;;;13.20;99.90;;;;;;5092889;28;20032;-67
2022/09/16 07:46:00;;;;;;;8.48;1.55;;;13.30;99.90;;;;;;5092577;28;20042;-67
2022/09/16 07:48:29;;;;;;;9.52;1.45;;;13.30;99.90;;;;;;5092730;28;20093;-67
2022/09/16 07:50:59;;;;;;;9.35;1.75;;;13.30;99.90;;;;;;5093062;28;20040;-67
2022/09/16 07:53:26;;;;;;;12.07;1.73;;;13.30;99.90;;;;;;5092364;28;20510;-67
2022/09/16 07:55:53;;;;;;;4.95;1.33;;;13.30;99.90;;;;;;5092459;28;20090;-67
2022/09/16 07:58:19;;;;;;;7.93;2.03;;;13.40;99.90;;;;;;5092538;28;20484;-67
2022/09/16 08:00:46;;;;;;;9.35;1.10;;;13.40;99.90;;;;;;5092480;28;20094;-67
2022/09/16 08:03:12;;;;;;;9.40;1.70;;;13.50;99.90;;;;;;5092528;28;20046;-67
2022/09/16 08:05:38;;;;;;;7.85;1.90;;;13.50;99.90;;;;;;5092072;28;20118;-67
2022/09/16 08:08:04;;;;;;;10.85;2.10;;;13.50;99.90;;;;;;5092294;28;20036;-67
2022/09/16 08:10:29;;;;;;;7.10;1.38;;;13.50;99.90;;;;;;5092512;28;20036;-67
2022/09/16 08:12:55;;;;;;;6.05;1.45;;;13.50;99.90;;;;;;5091232;28;20129;-67
2022/09/16 08:15:21;;;;;;;10.10;1.70;;;13.50;99.90;;;;;;5090554;28;20050;-67
2022/09/16 08:17:47;;;;;;;14.63;1.90;;;13.50;99.90;;;;;;5092200;28;20048;-67
2022/09/16 08:20:13;;;;;;;14.38;1.67;;;13.60;99.90;;;;;;5090909;28;20047;-67
2022/09/16 08:22:38;;;;;;;9.68;1.92;;;13.60;99.90;;;;;;5092234;28;20044;-67
2022/09/16 08:25:04;;;;;;;6.15;1.52;;;13.60;99.90;;;;;;5090829;28;20040;-67
2022/09/16 08:27:34;;;;;;;7.60;1.90;;;13.70;99.90;;;;;;5091082;28;20551;-67
2022/09/16 08:29:59;;;;;;;7.13;1.27;;;13.60;99.90;;;;;;5092192;28;20085;-67
2022/09/16 08:32:25;;;;;;;19.33;1.67;;;13.80;99.90;;;;;;5091985;28;20416;-67
2022/09/16 08:34:52;;;;;;;12.95;1.90;;;13.70;99.90;;;;;;5091667;28;20058;-67
2022/09/16 08:37:17;;;;;;;10.18;1.80;;;13.70;99.90;;;;;;5090700;28;20401;-67
2022/09/16 08:39:43;;;;;;;6.13;1.50;;;13.80;99.90;;;;;;5090847;28;20043;-67
2022/09/16 08:42:20;;;;;;;8.75;1.67;;;13.80;99.90;;;;;;5092024;28;20032;-67
2022/09/16 08:45:13;;;;;;;7.20;1.85;;;13.90;99.90;;;;;;5091684;28;20063;-67
2022/09/16 08:48:09;;;;;;;10.02;1.23;;;13.90;99.90;;;;;;5050789;28;20048;-67
2022/09/16 08:50:39;;;;;;;9.70;1.80;;;14.00;99.90;;;;;;5092031;28;20040;-67
2022/09/16 08:53:17;;;;;;;7.45;1.17;;;14.00;99.90;;;;;;5091900;28;20463;-67
2022/09/16 08:55:47;;;;;;;13.93;1.80;;;14.20;99.90;;;;;;5091549;28;20048;-67
2022/09/16 08:58:14;;;;;;;9.50;1.73;;;14.30;99.90;;;;;;5091776;28;20553;-67
2022/09/16 09:00:43;;;;;;;11.52;1.40;;;14.40;99.90;;;;;;5093059;28;20492;-67
2022/09/16 09:03:37;;;;;;;11.10;1.95;;;14.40;99.90;;;;;;5095956;28;20165;-67
2022/09/16 09:06:22;;;;;;;15.68;1.70;;;14.30;99.90;;;;;;5094355;28;20040;-67
2022/09/16 09:09:22;;;;;;;9.63;1.70;;;14.40;99.90;;;;;;5096002;28;20468;-67
2022/09/16 09:12:10;;;;;;;9.02;1.52;;;14.30;99.90;;;;;;5095908;28;20101;-67
2022/09/16 09:15:02;;;;;;;12.68;1.75;;;14.30;99.90;;;;;;5095274;28;20039;-67
2022/09/16 09:18:03;;;;;;;8.68;1.42;;;14.40;99.90;;;;;;5095788;28;20400;-67
2022/09/16 09:21:08;;;;;;;8.55;1.58;;;14.30;99.90;;;;;;5095686;28;20038;-67
2022/09/16 09:23:34;;;;;;;8.15;1.50;;;14.40;99.90;;;;;;5095418;28;20516;-67
2022/09/16 09:26:20;;;;;;;8.38;1.65;;;14.50;99.90;;;;;;5095312;28;20111;-67
2022/09/16 09:28:57;;;;;;;14.82;2.03;;;14.50;99.90;;;;;;5095466;28;20559;-67
2022/09/16 09:31:30;;;;;;;13.55;1.85;;;14.50;99.90;;;;;;5094105;28;20046;-67
2022/09/16 09:34:02;;;;;;;7.47;2.05;;;14.60;99.90;;;;;;5095183;28;20127;-68
2022/09/16 09:37:00;;;;;;;16.67;2.05;;;14.60;99.90;;;;;;5094176;28;20044;-67
2022/09/16 09:39:54;;;;;;;13.27;1.50;;;14.70;99.90;;;;;;5095057;28;20039;-67
2022/09/16 09:42:28;;;;;;;10.75;1.40;;;14.70;99.90;;;;;;5095380;28;20445;-67
2022/09/16 09:45:02;;;;;;;5.22;1.50;;;14.80;99.90;;;;;;5095017;28;20466;-67
2022/09/16 09:47:53;;;;;;;12.15;1.85;;;14.80;99.90;;;;;;5095248;28;20040;-68
2022/09/16 09:50:37;;;;;;;9.68;1.70;;;14.90;99.90;;;;;;5095305;28;20043;-67
2022/09/16 09:53:22;;;;;;;12.18;1.55;;;14.80;99.90;;;;;;5095006;28;20092;-67
2022/09/16 09:55:54;;;;;;;10.35;1.25;;;14.90;99.90;;;;;;5094709;28;20048;-67
2022/09/16 09:58:28;;;;;;;10.48;1.60;;;15.00;99.90;;;;;;5094867;28;20450;-67
2022/09/16 10:00:56;;;;;;;8.35;1.50;;;15.00;99.90;;;;;;5093483;28;20036;-67
2022/09/16 10:03:22;;;;;;;9.27;1.48;;;15.00;99.90;;;;;;5094706;28;20104;-67
2022/09/16 10:05:48;;;;;;;6.22;1.63;;;15.10;99.90;;;;;;5094527;28;20115;-67
2022/09/16 10:08:19;;;;;;;9.52;1.38;;;15.10;99.90;;;;;;5094657;28;20117;-67
2022/09/16 10:10:49;;;;;;;9.07;1.58;;;15.20;99.90;;;;;;5094628;28;20043;-67
2022/09/16 10:13:16;;;;;;;6.93;1.10;;;15.30;99.90;;;;;;5091928;28;20210;-67
2022/09/16 10:15:42;;;;;;;9.38;1.30;;;15.20;99.90;;;;;;5094293;28;20035;-67
2022/09/16 10:18:21;;;;;;;9.52;1.42;;;15.30;99.90;;;;;;5094452;28;20040;-67
2022/09/16 10:21:09;;;;;;;8.95;1.42;;;15.30;99.90;;;;;;5094510;28;20035;-67
2022/09/16 10:23:35;;;;;;;8.15;1.27;;;15.40;99.90;;;;;;5094473;28;20047;-67
2022/09/16 10:26:23;;;;;;;8.15;1.30;;;15.40;99.90;;;;;;5093077;28;20048;-67
2022/09/16 10:29:02;;;;;;;6.13;1.30;;;15.40;99.90;;;;;;5094267;28;20031;-67
2022/09/16 10:31:37;;;;;;;11.45;1.67;;;15.50;99.90;;;;;;5094211;28;20051;-67
2022/09/16 10:34:12;;;;;;;8.77;1.52;;;15.60;99.90;;;;;;5093839;28;20547;-68
2022/09/16 10:36:37;;;;;;;10.43;1.23;;;15.70;99.90;;;;;;5094179;28;20040;-68
2022/09/16 10:39:04;;;;;;;9.75;1.60;;;15.80;99.90;;;;;;5094107;28;20039;-67
2022/09/16 10:41:39;;;;;;;7.38;1.30;;;15.80;99.90;;;;;;5094106;28;20043;-67
2022/09/16 10:44:19;;;;;;;10.38;1.60;;;15.70;99.90;;;;;;5093550;28;20036;-68
2022/09/16 10:46:54;;;;;;;5.57;1.10;;;15.40;99.90;;;;;;5092785;28;20048;-67
2022/09/16 10:49:26;;;;;;;4.88;1.42;;;15.10;99.90;;;;;;5093896;28;20054;-67
2022/09/16 10:51:52;;;;;;;;;;;15.00;99.90;;;;;;5094332;28;20055;-67
2022/09/16 10:54:27;;;;;;;11.10;1.27;;;15.00;99.90;;;;;;5093437;28;20388;-67
2022/09/16 10:56:53;;;;;;;7.13;1.85;;;15.10;99.90;;;;;;5092602;28;20048;-68
2022/09/16 10:59:19;;;;;;;14.05;1.80;;;15.10;99.90;;;;;;5093882;28;20063;-67
2022/09/16 11:02:03;;;;;;;8.85;1.58;;;15.20;99.90;;;;;;5093798;28;20032;-67
2022/09/16 11:04:58;;;;;;;8.25;1.55;;;15.20;99.90;;;;;;5093416;28;20112;-67
2022/09/16 11:07:55;;;;;;;9.02;1.58;;;15.30;99.90;;;;;;5093755;28;20082;-67
2022/09/16 11:10:32;;;;;;;10.45;1.65;;;15.40;99.90;;;;;;5088598;28;20060;-67
2022/09/16 11:13:08;;;;;;;8.98;1.50;;;15.40;99.90;;;;;;5093775;28;20480;-67
2022/09/16 11:15:52;;;;;;;12.77;1.60;;;15.40;99.90;;;;;;5092993;28;20044;-67
2022/09/16 11:18:42;;;;;;;5.90;1.60;;;15.60;99.90;;;;;;5093370;28;20050;-67
2022/09/16 11:21:27;;;;;;;5.93;1.80;;;15.50;99.90;;;;;;5093245;28;20040;-67
2022/09/16 11:24:08;;;;;;;12.80;1.63;;;15.40;99.90;;;;;;5092516;28;20531;-67
2022/09/16 11:26:48;;;;;;;7.95;1.25;;;15.40;99.90;;;;;;5093350;28;20040;-67
2022/09/16 11:29:36;;;;;;;8.07;1.60;;;15.40;99.90;;;;;;5093196;28;20039;-67
2022/09/16 11:32:18;;;;;;;8.30;2.08;;;15.40;99.90;;;;;;5091658;28;20040;-67
2022/09/16 11:34:57;;;;;;;5.70;1.40;;;15.60;99.90;;;;;;5091695;28;20040;-67
2022/09/16 11:37:35;;;;;;;10.73;1.70;;;15.70;99.90;;;;;;5091684;28;20052;-67
2022/09/16 11:40:24;;;;;;;8.40;1.33;;;15.80;99.90;;;;;;5092973;28;20047;-67
2022/09/16 11:43:00;;;;;;;8.00;1.48;;;16.00;99.90;;;;;;5093053;28;20075;-67
2022/09/16 11:45:48;;;;;;;6.70;1.63;;;16.10;99.90;;;;;;5092705;28;20385;-67
2022/09/16 11:48:57;;;;;;;12.77;1.90;;;16.20;99.90;;;;;;5092736;28;20040;-67
2022/09/16 11:51:51;;;;;;;5.05;1.20;;;16.30;99.90;;;;;;5061373;28;20055;-67
2022/09/16 11:54:53;;;;;;;4.88;1.30;;;16.30;99.90;;;;;;5092438;28;20118;-67
2022/09/16 11:57:24;;;;;;;4.47;1.30;;;16.30;99.90;;;;;;5092740;28;20480;-67
2022/09/16 12:00:09;;;;;;;7.53;1.20;;;16.20;99.90;;;;;;5092773;28;20063;-67
2022/09/16 12:02:56;;;;;;;15.50;1.73;;;16.10;99.90;;;;;;5092432;28;20039;-67
2022/09/16 12:05:34;;;;;;;8.70;1.10;;;16.10;99.90;;;;;;5092132;28;20081;-67
2022/09/16 12:08:27;;;;;;;10.55;1.33;;;16.10;99.90;;;;;;5092620;28;20044;-67
2022/09/16 12:11:02;;;;;;;17.38;2.00;;;16.10;99.90;;;;;;5091456;28;20115;-68
2022/09/16 12:13:42;;;;;;;9.45;1.65;;;15.90;99.90;;;;;;5092190;28;20040;-68
2022/09/16 12:16:13;;;;;;;7.07;1.38;;;15.60;99.90;;;;;;5092315;28;20036;-68
2022/09/16 12:18:58;;;;;;;9.55;1.20;;;15.60;99.90;;;;;;5092532;28;20040;-68
2022/09/16 12:21:33;;;;;;;7.30;1.52;;;15.60;99.90;;;;;;5091214;28;20032;-69
2022/09/16 12:24:36;;;;;;;11.95;1.58;;;15.50;99.90;;;;;;5091792;28;20043;-69
2022/09/16 12:27:08;;;;;;;;;;;15.60;99.90;;;;;;5039965;28;20051;-69
2022/09/16 12:29:52;;;;;;;6.75;1.35;;;15.60;99.90;;;;;;5092257;28;19916;-69
2022/09/16 12:32:42;;;;;;;5.18;1.45;;;15.70;99.90;;;;;;5092142;28;20104;-69
2022/09/16 12:35:19;;;;;;;6.90;1.38;;;15.90;99.90;;;;;;5080990;28;20559;-68
2022/09/16 12:37:48;;;;;;;12.32;1.27;;;15.70;99.90;;;;;;5090671;28;20039;-69
2022/09/16 12:40:18;;;;;;;5.47;1.02;;;15.40;99.90;;;;;;5091885;28;20043;-69
2022/09/16 12:42:57;;;;;;;4.07;0.50;;;15.00;99.90;;;;;;5090603;28;20074;-68
2022/09/16 12:45:39;;;;;;;1.38;0.80;;;14.90;99.90;;;;;;5091768;28;20051;-69
2022/09/16 12:48:37;;;;;;;4.47;0.90;;;14.90;99.90;;;;;;5090531;28;20082;-69
2022/09/16 12:51:30;;;;;;;1.85;0.63;;;14.90;99.90;;;;;;5090570;28;20048;-68
2022/09/16 12:54:17;;;;;;;5.10;0.80;;;14.80;99.90;;;;;;5091589;28;20106;-68
2022/09/16 12:57:03;;;;;;;4.18;1.00;;;14.90;99.90;;;;;;5090468;28;20051;-69
2022/09/16 13:00:06;;;;;;;3.35;0.90;;;15.00;99.90;;;;;;5091959;28;20040;-68
2022/09/16 13:02:53;;;;;;;3.97;1.05;;;15.10;99.90;;;;;;5090304;28;20607;-69
2022/09/16 13:05:28;;;;;;;5.05;1.25;;;15.10;99.90;;;;;;5090080;28;20177;-68
2022/09/16 13:07:57;;;;;;;6.97;1.20;;;15.20;99.90;;;;;;5090953;28;20043;-67
2022/09/16 13:10:45;;;;;;;10.25;1.58;;;15.30;99.90;;;;;;5089327;28;20115;-68
2022/09/16 13:13:23;;;;;;;8.50;1.63;;;15.40;99.90;;;;;;5090786;28;20063;-69
2022/09/16 13:15:57;;;;;;;5.85;1.70;;;15.60;99.90;;;;;;5089008;28;20040;-68
2022/09/16 13:18:37;;;;;;;8.55;1.95;;;15.60;99.90;;;;;;5091075;28;20040;-68
2022/09/16 13:21:27;;;;;;;14.30;1.75;;;15.50;99.90;;;;;;5091550;28;20107;-69